createdAt,value
2022-12-07T00:01:47.229Z,28.50
2022-12-07T00:04:18.183Z,25.23
2022-12-07T00:06:48.051Z,25.73
2022-12-07T00:09:19.170Z,30.83
2022-12-07T00:11:50.382Z,23.73
2022-12-07T00:14:19.521Z,23.43
2022-12-07T00:16:51.856Z,24.60
2022-12-07T00:19:20.762Z,27.13
2022-12-07T00:21:49.472Z,25.73
2022-12-07T00:24:20.656Z,36.33
2022-12-07T00:26:49.023Z,27.37
2022-12-07T00:29:20.555Z,34.23
2022-12-07T00:31:53.140Z,27.93
2022-12-07T00:34:23.575Z,28.30
2022-12-07T00:36:52.678Z,29.23
2022-12-07T00:39:30.354Z,22.57
2022-12-07T00:41:58.607Z,28.20
2022-12-07T00:44:27.009Z,24.80
2022-12-07T00:46:56.824Z,30.47
2022-12-07T00:49:27.375Z,29.03
2022-12-07T00:52:00.985Z,28.97
2022-12-07T00:54:29.210Z,29.53
2022-12-07T00:56:57.447Z,29.07
2022-12-07T00:59:25.757Z,26.60
2022-12-07T01:01:54.090Z,34.30
2022-12-07T01:04:23.730Z,31.50
2022-12-07T01:06:56.536Z,33.70
2022-12-07T01:09:25.518Z,32.37
2022-12-07T01:11:53.964Z,34.63
2022-12-07T01:14:25.363Z,37.83
2022-12-07T01:16:53.968Z,31.67
2022-12-07T01:19:29.348Z,28.67
2022-12-07T01:21:57.646Z,32.63
2022-12-07T01:24:25.958Z,32.67
2022-12-07T01:26:54.195Z,34.33
2022-12-07T01:29:22.573Z,29.97
2022-12-07T01:31:51.685Z,30.87
2022-12-07T01:34:19.914Z,30.53
2022-12-07T01:36:52.183Z,31.10
2022-12-07T01:39:20.450Z,30.87
2022-12-07T01:41:48.703Z,29.73
2022-12-07T01:44:20.526Z,29.87
2022-12-07T01:46:50.348Z,30.53
2022-12-07T01:49:23.915Z,35.70
2022-12-07T01:52:02.346Z,31.17
2022-12-07T01:54:30.873Z,35.00
2022-12-07T01:57:03.368Z,30.47
2022-12-07T01:59:31.669Z,32.20
2022-12-07T02:02:00.474Z,29.50
2022-12-07T02:04:29.390Z,27.47
2022-12-07T02:07:03.298Z,28.83
2022-12-07T02:09:31.630Z,34.47
2022-12-07T02:12:00.143Z,31.70
2022-12-07T02:14:28.510Z,30.57
2022-12-07T02:17:09.220Z,28.33
2022-12-07T02:20:17.212Z,28.03
2022-12-07T02:23:19.181Z,33.93
2022-12-07T02:26:05.676Z,31.70
2022-12-07T02:28:40.320Z,30.30
2022-12-07T02:31:17.676Z,32.22
2022-12-07T02:33:53.145Z,32.00
2022-12-07T02:36:27.899Z,31.20
2022-12-07T02:39:01.836Z,29.30
2022-12-07T02:41:36.200Z,30.40
2022-12-07T02:44:09.177Z,29.30
2022-12-07T02:46:43.384Z,29.17
2022-12-07T02:49:12.876Z,27.80
2022-12-07T02:51:43.321Z,28.73
2022-12-07T02:54:15.132Z,31.93
2022-12-07T02:56:53.091Z,26.80
2022-12-07T02:59:33.511Z,25.20
2022-12-07T03:02:15.464Z,27.03
2022-12-07T03:04:53.110Z,29.27
2022-12-07T03:07:30.024Z,24.97
2022-12-07T03:10:17.068Z,27.37
2022-12-07T03:12:49.966Z,27.30
2022-12-07T03:15:24.401Z,26.10
2022-12-07T03:17:56.207Z,29.80
2022-12-07T03:20:35.335Z,26.00
2022-12-07T03:23:06.788Z,25.93
2022-12-07T03:25:37.580Z,23.40
2022-12-07T03:28:09.386Z,25.10
2022-12-07T03:30:47.045Z,26.97
2022-12-07T03:33:24.263Z,25.57
2022-12-07T03:36:00.803Z,23.87
2022-12-07T03:38:41.627Z,26.10
2022-12-07T03:41:19.303Z,22.73
2022-12-07T03:43:47.750Z,26.00
2022-12-07T03:46:21.614Z,23.10
2022-12-07T03:49:03.270Z,21.40
2022-12-07T03:51:38.837Z,24.97
2022-12-07T03:54:13.948Z,27.67
2022-12-07T03:56:43.254Z,23.20
2022-12-07T03:59:13.026Z,26.10
2022-12-07T04:01:43.373Z,22.73
2022-12-07T04:04:13.452Z,24.20
2022-12-07T04:06:41.678Z,20.17
2022-12-07T04:09:09.919Z,24.30
2022-12-07T04:11:38.186Z,19.50
2022-12-07T04:14:21.907Z,24.23
2022-12-07T04:16:51.735Z,29.37
2022-12-07T04:19:24.367Z,23.70
2022-12-07T04:21:52.790Z,24.13
2022-12-07T04:24:30.007Z,22.60
2022-12-07T04:27:12.430Z,25.23
2022-12-07T04:29:40.881Z,26.83
2022-12-07T04:32:09.266Z,27.97
2022-12-07T04:34:39.109Z,22.73
2022-12-07T04:37:07.381Z,26.73
2022-12-07T04:39:36.307Z,21.07
2022-12-07T04:42:08.195Z,20.67
2022-12-07T04:45:00.287Z,23.17
2022-12-07T04:47:32.231Z,23.63
2022-12-07T04:50:02.381Z,23.52
2022-12-07T04:52:33.246Z,23.70
2022-12-07T04:55:01.955Z,21.23
2022-12-07T04:57:41.511Z,22.40
2022-12-07T05:00:19.707Z,20.57
2022-12-07T05:02:47.996Z,20.97
2022-12-07T05:05:40.304Z,19.10
2022-12-07T05:08:08.607Z,23.97
2022-12-07T05:10:36.820Z,22.77
2022-12-07T05:13:05.102Z,23.67
2022-12-07T05:15:33.633Z,20.17
2022-12-07T05:18:07.436Z,22.87
2022-12-07T05:20:42.236Z,20.73
2022-12-07T05:23:10.926Z,25.33
2022-12-07T05:25:39.292Z,23.97
2022-12-07T05:28:07.871Z,22.37
2022-12-07T05:30:36.137Z,22.53
2022-12-07T05:33:04.904Z,25.73
2022-12-07T05:35:34.499Z,26.13
2022-12-07T05:38:04.111Z,22.63
2022-12-07T05:40:32.443Z,25.27
2022-12-07T05:43:04.175Z,29.13
2022-12-07T05:45:33.326Z,24.53
2022-12-07T05:48:01.645Z,22.63
2022-12-07T05:50:30.036Z,24.07
2022-12-07T05:52:58.540Z,23.57
2022-12-07T05:55:28.202Z,24.97
2022-12-07T05:58:13.040Z,24.33
2022-12-07T06:00:41.279Z,24.53
2022-12-07T06:03:09.675Z,26.37
2022-12-07T06:05:38.016Z,26.07
2022-12-07T06:08:06.666Z,24.47
2022-12-07T06:10:36.607Z,22.60
2022-12-07T06:13:03.862Z,21.57
2022-12-07T06:15:32.118Z,24.17
2022-12-07T06:18:00.453Z,27.10
2022-12-07T06:20:28.673Z,25.37
2022-12-07T06:22:56.941Z,27.27
2022-12-07T06:25:25.172Z,24.60
2022-12-07T06:27:56.367Z,27.90
2022-12-07T06:30:25.280Z,23.03
2022-12-07T06:32:53.578Z,27.53
2022-12-07T06:35:21.849Z,27.03
2022-12-07T06:37:50.093Z,26.23
2022-12-07T06:40:18.496Z,21.00
2022-12-07T06:42:46.899Z,22.17
2022-12-07T06:45:16.664Z,24.27
2022-12-07T06:47:45.748Z,22.03
2022-12-07T06:50:15.509Z,28.17
2022-12-07T06:52:44.256Z,22.50
2022-12-07T06:55:14.771Z,23.43
2022-12-07T06:57:43.198Z,20.47
2022-12-07T07:00:17.002Z,24.73
2022-12-07T07:02:54.844Z,26.30
2022-12-07T07:05:31.463Z,21.97
2022-12-07T07:10:51.777Z,20.50
2022-12-07T07:13:20.209Z,19.47
2022-12-07T07:15:48.643Z,20.40
2022-12-07T07:18:18.266Z,21.47
2022-12-07T07:20:46.559Z,19.60
2022-12-07T07:23:15.244Z,18.90
2022-12-07T07:25:43.544Z,23.27
2022-12-07T07:28:11.970Z,19.87
2022-12-07T07:30:40.430Z,20.20
2022-12-07T07:33:12.636Z,20.43
2022-12-07T07:35:42.739Z,18.77
2022-12-07T07:38:11.295Z,21.80
2022-12-07T07:40:39.548Z,19.17
2022-12-07T07:43:07.822Z,20.23
2022-12-07T07:45:36.143Z,19.10
2022-12-07T07:48:06.190Z,17.83
2022-12-07T07:50:34.416Z,16.43
2022-12-07T07:53:04.157Z,16.03
2022-12-07T07:55:32.479Z,15.10
2022-12-07T07:58:00.717Z,19.53
2022-12-07T08:00:29.165Z,14.73
2022-12-07T08:03:00.297Z,17.27
2022-12-07T08:05:28.538Z,15.60
2022-12-07T08:07:57.026Z,19.37
2022-12-07T08:10:27.483Z,15.67
2022-12-07T08:13:14.836Z,18.27
2022-12-07T08:15:44.743Z,16.97
2022-12-07T08:18:13.915Z,14.03
2022-12-07T08:20:42.830Z,16.20
2022-12-07T08:23:12.397Z,17.27
2022-12-07T08:25:43.974Z,13.77
2022-12-07T08:28:12.351Z,16.17
2022-12-07T08:30:40.732Z,17.13
2022-12-07T08:33:09.016Z,18.27
2022-12-07T08:35:37.280Z,15.00
2022-12-07T08:38:05.653Z,15.40
2022-12-07T08:40:33.939Z,13.83
2022-12-07T08:43:03.602Z,16.10
2022-12-07T08:45:33.496Z,17.67
2022-12-07T08:48:06.160Z,17.63
2022-12-07T08:50:34.992Z,15.15
2022-12-07T08:53:05.541Z,16.57
2022-12-07T08:55:35.684Z,14.17
2022-12-07T08:58:05.821Z,14.63
2022-12-07T09:00:34.107Z,13.00
2022-12-07T09:03:02.387Z,17.30
2022-12-07T09:05:30.658Z,16.43
2022-12-07T09:08:02.287Z,17.63
2022-12-07T09:10:30.704Z,16.40
2022-12-07T09:13:01.799Z,18.27
2022-12-07T09:15:32.385Z,18.50
2022-12-07T09:18:00.894Z,18.23
2022-12-07T09:20:29.219Z,17.07
2022-12-07T09:22:57.638Z,17.87
2022-12-07T09:25:25.931Z,17.60
2022-12-07T09:27:58.775Z,17.17
2022-12-07T09:30:30.192Z,17.10
2022-12-07T09:33:00.173Z,18.67
2022-12-07T09:35:29.584Z,14.97
2022-12-07T09:38:01.373Z,15.83
2022-12-07T09:40:30.563Z,17.13
2022-12-07T09:42:58.970Z,14.87
2022-12-07T09:45:33.340Z,17.20
2022-12-07T09:48:17.208Z,14.67
2022-12-07T09:50:45.600Z,16.53
2022-12-07T09:53:25.028Z,19.03
2022-12-07T09:55:54.612Z,21.23
2022-12-07T09:58:25.087Z,19.73
2022-12-07T10:00:58.001Z,16.80
2022-12-07T10:03:29.356Z,18.63
2022-12-07T10:05:59.351Z,21.13
2022-12-07T10:08:27.868Z,25.60
2022-12-07T10:10:58.456Z,20.83
2022-12-07T10:13:38.186Z,20.43
2022-12-07T10:16:08.026Z,21.53
2022-12-07T10:18:39.444Z,22.17
2022-12-07T10:21:14.014Z,18.50
2022-12-07T10:23:44.713Z,17.50
2022-12-07T10:26:29.206Z,28.30
2022-12-07T10:28:58.193Z,19.03
2022-12-07T10:31:42.265Z,14.93
2022-12-07T10:34:23.338Z,19.17
2022-12-07T10:36:51.809Z,17.03
2022-12-07T10:39:21.531Z,16.20
2022-12-07T10:41:58.246Z,15.33
2022-12-07T10:44:28.263Z,15.37
2022-12-07T10:47:21.439Z,16.27
2022-12-07T10:50:33.267Z,18.67
2022-12-07T10:53:26.940Z,16.00
2022-12-07T10:56:35.324Z,14.50
2022-12-07T10:59:25.005Z,15.83
2022-12-07T11:02:03.926Z,17.97
2022-12-07T11:04:38.371Z,19.10
2022-12-07T11:07:16.697Z,21.33
2022-12-07T11:10:08.842Z,18.97
2022-12-07T11:12:51.312Z,19.07
2022-12-07T11:15:23.397Z,20.57
2022-12-07T11:18:01.641Z,16.83
2022-12-07T11:20:42.248Z,16.93
2022-12-07T11:23:23.465Z,15.17
2022-12-07T11:26:00.737Z,19.87
2022-12-07T11:28:43.835Z,15.93
2022-12-07T11:31:25.778Z,18.43
2022-12-07T11:34:08.533Z,17.83
2022-12-07T11:36:44.305Z,17.07
2022-12-07T11:39:31.033Z,18.63
2022-12-07T11:42:06.257Z,23.93
2022-12-07T11:44:38.990Z,17.60
2022-12-07T11:47:20.790Z,19.90
2022-12-07T11:49:56.116Z,22.97
2022-12-07T11:52:32.719Z,18.43
2022-12-07T11:55:04.539Z,25.57
2022-12-07T11:57:39.741Z,23.57
2022-12-07T12:00:17.291Z,20.07
2022-12-07T12:02:51.525Z,26.33
2022-12-07T12:05:23.062Z,25.43
2022-12-07T12:11:02.106Z,20.50
2022-12-07T12:17:14.179Z,18.90
2022-12-07T12:19:44.958Z,19.83
2022-12-07T12:22:18.728Z,16.70
2022-12-07T12:24:53.339Z,19.47
2022-12-07T12:27:27.276Z,23.80
2022-12-07T12:30:01.499Z,21.33
2022-12-07T12:32:56.796Z,18.43
2022-12-07T12:35:49.505Z,19.77
2022-12-07T12:38:34.520Z,20.67
2022-12-07T12:41:03.952Z,25.27
2022-12-07T12:43:54.299Z,21.73
2022-12-07T12:46:50.584Z,21.90
2022-12-07T12:49:44.204Z,24.47
2022-12-07T12:53:00.327Z,30.50
2022-12-07T12:56:06.063Z,24.43
2022-12-07T12:58:37.609Z,23.00
2022-12-07T13:01:48.428Z,24.63
2022-12-07T13:04:38.939Z,19.27
2022-12-07T13:07:11.231Z,22.33
2022-12-07T13:09:46.543Z,19.93
2022-12-07T13:12:17.777Z,18.63
2022-12-07T13:14:58.004Z,20.53
2022-12-07T13:17:59.342Z,22.70
2022-12-07T13:20:50.470Z,23.27
2022-12-07T13:23:26.614Z,20.30
2022-12-07T13:26:05.241Z,23.13
2022-12-07T13:28:39.720Z,21.70
2022-12-07T13:31:32.949Z,19.97
2022-12-07T13:34:01.784Z,21.30
2022-12-07T13:36:36.716Z,24.73
2022-12-07T13:39:19.899Z,18.03
2022-12-07T13:41:53.680Z,16.17
2022-12-07T13:44:22.911Z,23.97
2022-12-07T13:47:02.422Z,19.57
2022-12-07T13:49:32.920Z,19.73
2022-12-07T13:52:18.027Z,21.47
2022-12-07T13:54:51.472Z,19.80
2022-12-07T13:57:20.551Z,22.67
2022-12-07T13:59:49.025Z,23.77
2022-12-07T14:02:23.253Z,27.30
2022-12-07T14:04:52.977Z,24.93
2022-12-07T14:07:35.631Z,24.50
2022-12-07T14:10:06.455Z,25.50
2022-12-07T14:12:38.846Z,24.97
2022-12-07T14:15:09.558Z,21.90
2022-12-07T14:17:37.824Z,23.50
2022-12-07T14:20:21.890Z,21.83
2022-12-07T14:22:57.732Z,25.37
2022-12-07T14:25:28.469Z,17.93
2022-12-07T14:27:59.304Z,21.67
2022-12-07T14:30:30.014Z,20.57
2022-12-07T14:33:05.627Z,21.07
2022-12-07T14:35:34.782Z,22.60
2022-12-07T14:38:04.485Z,22.70
2022-12-07T14:40:33.499Z,24.73
2022-12-07T14:43:07.930Z,19.80
2022-12-07T14:45:36.351Z,24.67
2022-12-07T14:53:55.061Z,26.77
2022-12-07T14:56:25.925Z,25.07
2022-12-07T14:58:59.574Z,25.43
2022-12-07T15:01:27.837Z,21.40
2022-12-07T15:03:59.334Z,27.70
2022-12-07T15:06:27.634Z,24.97
2022-12-07T15:08:57.264Z,24.57
2022-12-07T15:11:44.695Z,22.90
2022-12-07T15:14:13.776Z,24.43
2022-12-07T15:17:07.581Z,21.67
2022-12-07T15:19:53.761Z,27.90
2022-12-07T15:22:21.979Z,25.10
2022-12-07T15:24:51.926Z,21.27
2022-12-07T15:27:20.168Z,25.80
2022-12-07T15:29:48.450Z,23.33
2022-12-07T15:32:16.735Z,20.67
2022-12-07T15:34:45.178Z,24.33
2022-12-07T15:37:13.485Z,19.97
2022-12-07T15:39:42.419Z,18.37
2022-12-07T15:42:12.048Z,22.10
2022-12-07T15:44:57.442Z,25.27
2022-12-07T15:47:25.660Z,23.20
2022-12-07T15:49:53.897Z,27.83
2022-12-07T15:52:22.187Z,25.83
2022-12-07T15:54:50.666Z,30.73
2022-12-07T15:57:25.163Z,24.67
2022-12-07T15:59:55.119Z,30.47
2022-12-07T16:02:24.550Z,24.13
2022-12-07T16:04:53.178Z,28.77
2022-12-07T16:07:21.527Z,25.50
2022-12-07T16:09:50.538Z,30.23
2022-12-07T16:12:20.162Z,30.97
2022-12-07T16:14:48.588Z,29.60
2022-12-07T16:17:16.911Z,32.40
2022-12-07T16:19:45.152Z,35.77
2022-12-07T16:22:13.410Z,25.97
2022-12-07T16:24:41.835Z,34.17
2022-12-07T16:27:10.332Z,34.93
2022-12-07T16:29:40.169Z,38.97
2022-12-07T16:32:08.444Z,34.77
2022-12-07T16:34:36.682Z,33.20
2022-12-07T16:37:05.920Z,34.80
2022-12-07T16:39:42.689Z,37.03
2022-12-07T16:42:10.931Z,28.37
2022-12-07T16:44:40.975Z,29.23
2022-12-07T16:47:09.666Z,34.27
2022-12-07T16:49:37.998Z,36.10
2022-12-07T16:52:19.979Z,35.30
2022-12-07T16:54:50.083Z,33.23
2022-12-07T16:57:23.115Z,34.60
2022-12-07T16:59:55.484Z,41.30
2022-12-07T17:02:24.839Z,35.63
2022-12-07T17:04:53.476Z,31.97
2022-12-07T17:07:21.730Z,29.97
2022-12-07T17:09:50.164Z,30.20
2022-12-07T17:12:19.824Z,34.50
2022-12-07T17:15:06.035Z,33.77
2022-12-07T17:17:35.980Z,34.03
2022-12-07T17:20:04.894Z,33.23
2022-12-07T17:22:33.140Z,41.70
2022-12-07T17:25:01.865Z,36.23
2022-12-07T17:27:30.674Z,41.03
2022-12-07T17:29:59.106Z,40.70
2022-12-07T17:32:27.382Z,43.57
2022-12-07T17:34:57.093Z,30.13
2022-12-07T17:37:25.312Z,30.43
2022-12-07T17:39:56.983Z,29.47
2022-12-07T17:42:46.482Z,28.57
2022-12-07T17:45:14.858Z,39.40
2022-12-07T17:47:43.165Z,34.37
2022-12-07T17:50:13.340Z,32.97
2022-12-07T17:53:02.107Z,30.83
2022-12-07T17:55:39.020Z,41.17
2022-12-07T17:58:18.992Z,37.30
2022-12-07T18:00:47.283Z,35.63
2022-12-07T18:03:15.725Z,40.00
2022-12-07T18:05:47.477Z,38.00
2022-12-07T18:08:15.785Z,36.40
2022-12-07T18:10:44.092Z,36.03
2022-12-07T18:13:29.818Z,42.37
2022-12-07T18:15:58.715Z,30.27
2022-12-07T18:18:27.022Z,33.77
2022-12-07T18:20:56.740Z,37.17
2022-12-07T18:23:25.006Z,35.30
2022-12-07T18:25:53.584Z,40.03
2022-12-07T18:28:22.062Z,39.00
2022-12-07T18:31:14.758Z,32.20
2022-12-07T18:33:40.582Z,37.77
2022-12-07T18:36:11.550Z,35.90
2022-12-07T18:38:40.580Z,38.35
2022-12-07T18:41:09.647Z,38.67
2022-12-07T18:43:38.396Z,40.27
2022-12-07T18:46:12.661Z,40.00
2022-12-07T18:48:40.968Z,43.57
2022-12-07T18:51:20.265Z,46.00
2022-12-07T18:53:48.951Z,45.83
2022-12-07T18:56:19.396Z,51.20
2022-12-07T18:59:08.679Z,49.70
2022-12-07T19:01:36.996Z,44.97
2022-12-07T19:04:05.887Z,45.90
2022-12-07T19:06:36.070Z,35.70
2022-12-07T19:09:04.849Z,46.23
2022-12-07T19:11:52.957Z,43.17
2022-12-07T19:14:24.878Z,37.63
2022-12-07T19:16:55.123Z,32.23
2022-12-07T19:19:25.952Z,35.53
2022-12-07T19:21:55.627Z,39.00
2022-12-07T19:24:24.146Z,31.27
2022-12-07T19:26:52.541Z,34.38
2022-12-07T19:29:20.862Z,36.07
2022-12-07T19:31:49.179Z,33.20
2022-12-07T19:34:18.438Z,37.30
2022-12-07T19:36:47.811Z,36.87
2022-12-07T19:39:17.863Z,45.27
2022-12-07T19:41:46.546Z,42.53
2022-12-07T19:44:16.277Z,30.33
2022-12-07T19:46:47.642Z,37.43
2022-12-07T19:49:16.437Z,39.20
2022-12-07T19:51:45.869Z,33.43
2022-12-07T19:54:17.512Z,39.70
2022-12-07T19:56:46.495Z,35.93
2022-12-07T19:59:16.445Z,35.73
2022-12-07T20:01:45.398Z,39.50
2022-12-07T20:04:16.608Z,32.37
2022-12-07T20:06:45.057Z,37.20
2022-12-07T20:09:15.006Z,33.03
2022-12-07T20:12:02.059Z,32.40
2022-12-07T20:14:31.696Z,43.37
2022-12-07T20:17:00.488Z,38.83
2022-12-07T20:19:28.920Z,43.83
2022-12-07T20:21:57.497Z,42.10
2022-12-07T20:24:27.350Z,41.13
2022-12-07T20:26:57.898Z,44.20
2022-12-07T20:29:26.588Z,38.27
2022-12-07T20:31:56.005Z,46.70
2022-12-07T20:34:25.366Z,41.10
2022-12-07T20:36:54.277Z,36.57
2022-12-07T20:39:23.884Z,37.13
2022-12-07T20:42:10.287Z,38.13
2022-12-07T20:44:40.000Z,40.35
2022-12-07T20:47:08.697Z,33.27
2022-12-07T20:49:36.948Z,38.03
2022-12-07T20:52:05.688Z,43.37
2022-12-07T20:54:33.952Z,41.80
2022-12-07T20:57:02.199Z,40.22
2022-12-07T20:59:30.688Z,39.03
2022-12-07T21:02:00.388Z,40.57
2022-12-07T21:04:28.740Z,38.40
2022-12-07T21:06:56.989Z,47.20
2022-12-07T21:09:27.070Z,44.87
2022-12-07T21:11:55.960Z,49.13
2022-12-07T21:14:24.519Z,45.27
2022-12-07T21:16:52.772Z,39.90
2022-12-07T21:19:22.406Z,45.80
2022-12-07T21:21:50.643Z,44.63
2022-12-07T21:24:18.988Z,48.27
2022-12-07T21:26:47.301Z,45.03
2022-12-07T21:29:15.569Z,44.93
2022-12-07T21:31:44.858Z,42.70
2022-12-07T21:34:13.205Z,48.07
2022-12-07T21:36:42.824Z,46.37
2022-12-07T21:39:11.886Z,55.40
2022-12-07T21:41:40.278Z,44.77
2022-12-07T21:44:10.450Z,46.83
2022-12-07T21:46:39.938Z,49.67
2022-12-07T21:49:11.863Z,53.23
2022-12-07T21:51:41.178Z,51.27
2022-12-07T21:54:12.529Z,47.70
2022-12-07T21:56:42.431Z,44.57
2022-12-07T21:59:13.599Z,54.70
2022-12-07T22:01:45.510Z,46.10
2022-12-07T22:04:17.274Z,48.43
2022-12-07T22:06:46.357Z,41.73
2022-12-07T22:09:18.820Z,47.93
2022-12-07T22:11:47.571Z,46.67
2022-12-07T22:14:33.593Z,51.63
2022-12-07T22:17:01.828Z,45.03
2022-12-07T22:19:30.048Z,43.43
2022-12-07T22:21:59.013Z,47.57
2022-12-07T22:24:28.635Z,50.73
2022-12-07T22:26:56.875Z,45.67
2022-12-07T22:29:26.110Z,43.17
2022-12-07T22:31:54.708Z,48.73
2022-12-07T22:34:23.194Z,49.03
2022-12-07T22:36:51.516Z,46.93
2022-12-07T22:39:19.859Z,53.85
2022-12-07T22:41:49.474Z,48.33
2022-12-07T22:44:18.963Z,50.90
2022-12-07T22:46:47.436Z,45.47
2022-12-07T22:49:15.733Z,45.53
2022-12-07T22:51:44.702Z,51.92
2022-12-07T22:54:16.684Z,48.60
2022-12-07T22:56:52.304Z,46.43
2022-12-07T22:59:20.516Z,48.77
2022-12-07T23:01:48.738Z,39.07
2022-12-07T23:04:17.887Z,48.93
2022-12-07T23:06:46.306Z,50.13
2022-12-07T23:09:14.865Z,46.63
2022-12-07T23:12:04.048Z,52.60
2022-12-07T23:14:35.727Z,48.13
2022-12-07T23:17:04.429Z,42.37
2022-12-07T23:19:32.695Z,43.20
2022-12-07T23:22:01.044Z,42.27
2022-12-07T23:24:29.470Z,45.57
2022-12-07T23:26:57.712Z,49.40
2022-12-07T23:29:25.929Z,43.40
2022-12-07T23:31:55.642Z,38.23
2022-12-07T23:34:23.930Z,40.57
2022-12-07T23:36:52.246Z,43.27
2022-12-07T23:39:20.539Z,40.73
2022-12-07T23:41:48.806Z,34.97
2022-12-07T23:44:17.064Z,42.85
2022-12-07T23:46:45.439Z,41.80
2022-12-07T23:49:15.161Z,35.53
2022-12-07T23:51:43.392Z,35.03
2022-12-07T23:54:12.821Z,39.40
2022-12-07T23:56:41.134Z,39.63
2022-12-07T23:59:11.954Z,41.10
